sensor_id;sensor_type;location;lat;lon;timestamp;P1;durP1;ratioP1;P2;durP2;ratioP2
38312;SDS011;24114;52.260;6.714;2022-07-06T00:01:06;3.55;;;1.60;;
38312;SDS011;24114;52.260;6.714;2022-07-06T00:03:34;2.97;;;1.70;;
38312;SDS011;24114;52.260;6.714;2022-07-06T00:06:02;3.47;;;1.58;;
38312;SDS011;24114;52.260;6.714;2022-07-06T00:08:30;3.30;;;1.50;;
38312;SDS011;24114;52.260;6.714;2022-07-06T00:10:57;2.65;;;1.42;;
38312;SDS011;24114;52.260;6.714;2022-07-06T00:13:25;2.43;;;1.40;;
38312;SDS011;24114;52.260;6.714;2022-07-06T00:15:53;2.50;;;1.40;;
38312;SDS011;24114;52.260;6.714;2022-07-06T00:18:22;3.42;;;1.40;;
38312;SDS011;24114;52.260;6.714;2022-07-06T00:20:51;2.60;;;1.33;;
38312;SDS011;24114;52.260;6.714;2022-07-06T00:23:19;1.95;;;1.30;;
38312;SDS011;24114;52.260;6.714;2022-07-06T00:25:46;3.23;;;0.90;;
38312;SDS011;24114;52.260;6.714;2022-07-06T00:28:15;2.28;;;0.85;;
38312;SDS011;24114;52.260;6.714;2022-07-06T00:30:43;1.92;;;0.80;;
38312;SDS011;24114;52.260;6.714;2022-07-06T00:33:10;2.33;;;1.10;;
38312;SDS011;24114;52.260;6.714;2022-07-06T00:35:39;1.88;;;1.00;;
38312;SDS011;24114;52.260;6.714;2022-07-06T00:38:07;2.42;;;1.00;;
38312;SDS011;24114;52.260;6.714;2022-07-06T00:40:35;1.42;;;0.80;;
38312;SDS011;24114;52.260;6.714;2022-07-06T00:43:03;2.17;;;1.30;;
38312;SDS011;24114;52.260;6.714;2022-07-06T00:45:30;2.40;;;0.90;;
38312;SDS011;24114;52.260;6.714;2022-07-06T00:47:58;2.78;;;1.17;;
38312;SDS011;24114;52.260;6.714;2022-07-06T00:50:26;1.90;;;1.30;;
38312;SDS011;24114;52.260;6.714;2022-07-06T00:52:56;2.42;;;1.30;;
38312;SDS011;24114;52.260;6.714;2022-07-06T00:55:27;3.00;;;1.20;;
38312;SDS011;24114;52.260;6.714;2022-07-06T00:57:55;2.80;;;1.20;;
38312;SDS011;24114;52.260;6.714;2022-07-06T01:00:24;2.50;;;1.58;;
38312;SDS011;24114;52.260;6.714;2022-07-06T01:02:53;2.57;;;1.30;;
38312;SDS011;24114;52.260;6.714;2022-07-06T01:05:21;1.38;;;0.90;;
38312;SDS011;24114;52.260;6.714;2022-07-06T01:07:50;2.78;;;1.30;;
38312;SDS011;24114;52.260;6.714;2022-07-06T01:10:21;3.03;;;1.07;;
38312;SDS011;24114;52.260;6.714;2022-07-06T01:12:49;2.50;;;1.20;;
38312;SDS011;24114;52.260;6.714;2022-07-06T01:15:17;1.70;;;1.10;;
38312;SDS011;24114;52.260;6.714;2022-07-06T01:17:46;1.85;;;1.02;;
38312;SDS011;24114;52.260;6.714;2022-07-06T01:20:15;3.50;;;1.43;;
38312;SDS011;24114;52.260;6.714;2022-07-06T01:22:44;2.17;;;1.13;;
38312;SDS011;24114;52.260;6.714;2022-07-06T01:25:12;3.08;;;1.40;;
38312;SDS011;24114;52.260;6.714;2022-07-06T01:27:40;2.85;;;1.45;;
38312;SDS011;24114;52.260;6.714;2022-07-06T01:30:10;2.80;;;1.40;;
38312;SDS011;24114;52.260;6.714;2022-07-06T01:32:39;3.55;;;1.80;;
38312;SDS011;24114;52.260;6.714;2022-07-06T01:35:08;1.88;;;1.30;;
38312;SDS011;24114;52.260;6.714;2022-07-06T01:37:38;2.60;;;1.23;;
38312;SDS011;24114;52.260;6.714;2022-07-06T01:40:07;2.13;;;1.10;;
38312;SDS011;24114;52.260;6.714;2022-07-06T01:42:36;2.70;;;1.23;;
38312;SDS011;24114;52.260;6.714;2022-07-06T01:45:04;1.95;;;1.10;;
38312;SDS011;24114;52.260;6.714;2022-07-06T01:47:33;3.10;;;1.45;;
38312;SDS011;24114;52.260;6.714;2022-07-06T01:50:01;2.38;;;1.23;;
38312;SDS011;24114;52.260;6.714;2022-07-06T01:52:30;2.00;;;1.17;;
38312;SDS011;24114;52.260;6.714;2022-07-06T01:54:59;2.25;;;1.30;;
38312;SDS011;24114;52.260;6.714;2022-07-06T01:57:27;2.75;;;1.15;;
38312;SDS011;24114;52.260;6.714;2022-07-06T01:59:55;1.83;;;0.93;;
38312;SDS011;24114;52.260;6.714;2022-07-06T02:02:22;9.35;;;1.30;;
38312;SDS011;24114;52.260;6.714;2022-07-06T02:04:50;1.75;;;0.98;;
38312;SDS011;24114;52.260;6.714;2022-07-06T02:07:17;2.87;;;1.40;;
38312;SDS011;24114;52.260;6.714;2022-07-06T02:09:45;1.63;;;1.05;;
38312;SDS011;24114;52.260;6.714;2022-07-06T02:12:14;2.10;;;1.00;;
38312;SDS011;24114;52.260;6.714;2022-07-06T02:14:42;3.33;;;1.20;;
38312;SDS011;24114;52.260;6.714;2022-07-06T02:17:09;2.13;;;1.13;;
38312;SDS011;24114;52.260;6.714;2022-07-06T02:19:37;3.58;;;1.20;;
38312;SDS011;24114;52.260;6.714;2022-07-06T02:22:05;1.92;;;1.05;;
38312;SDS011;24114;52.260;6.714;2022-07-06T02:24:33;2.03;;;1.10;;
38312;SDS011;24114;52.260;6.714;2022-07-06T02:27:00;2.80;;;1.20;;
38312;SDS011;24114;52.260;6.714;2022-07-06T02:29:29;3.53;;;1.38;;
38312;SDS011;24114;52.260;6.714;2022-07-06T02:31:57;1.10;;;1.00;;
38312;SDS011;24114;52.260;6.714;2022-07-06T02:34:24;3.40;;;1.50;;
38312;SDS011;24114;52.260;6.714;2022-07-06T02:36:52;3.30;;;1.13;;
38312;SDS011;24114;52.260;6.714;2022-07-06T02:39:20;2.63;;;1.15;;
38312;SDS011;24114;52.260;6.714;2022-07-06T02:41:47;2.28;;;1.08;;
38312;SDS011;24114;52.260;6.714;2022-07-06T02:44:15;2.30;;;0.90;;
38312;SDS011;24114;52.260;6.714;2022-07-06T02:46:44;2.55;;;1.20;;
38312;SDS011;24114;52.260;6.714;2022-07-06T02:49:12;2.67;;;1.10;;
38312;SDS011;24114;52.260;6.714;2022-07-06T02:51:39;2.67;;;1.10;;
38312;SDS011;24114;52.260;6.714;2022-07-06T02:54:07;3.05;;;1.20;;
38312;SDS011;24114;52.260;6.714;2022-07-06T02:56:35;3.10;;;1.15;;
38312;SDS011;24114;52.260;6.714;2022-07-06T02:59:02;2.08;;;1.10;;
38312;SDS011;24114;52.260;6.714;2022-07-06T03:01:34;3.05;;;1.17;;
38312;SDS011;24114;52.260;6.714;2022-07-06T03:04:03;2.03;;;0.80;;
38312;SDS011;24114;52.260;6.714;2022-07-06T03:06:32;2.60;;;0.87;;
38312;SDS011;24114;52.260;6.714;2022-07-06T03:08:59;3.88;;;1.10;;
38312;SDS011;24114;52.260;6.714;2022-07-06T03:11:28;3.63;;;1.00;;
38312;SDS011;24114;52.260;6.714;2022-07-06T03:13:55;1.92;;;0.90;;
38312;SDS011;24114;52.260;6.714;2022-07-06T03:16:23;3.85;;;1.10;;
38312;SDS011;24114;52.260;6.714;2022-07-06T03:18:51;2.70;;;0.97;;
38312;SDS011;24114;52.260;6.714;2022-07-06T03:21:20;2.03;;;0.93;;
38312;SDS011;24114;52.260;6.714;2022-07-06T03:23:47;2.17;;;0.90;;
38312;SDS011;24114;52.260;6.714;2022-07-06T03:26:15;2.70;;;0.98;;
38312;SDS011;24114;52.260;6.714;2022-07-06T03:28:43;3.15;;;0.90;;
38312;SDS011;24114;52.260;6.714;2022-07-06T03:31:10;2.70;;;0.80;;
38312;SDS011;24114;52.260;6.714;2022-07-06T03:33:38;2.30;;;0.80;;
38312;SDS011;24114;52.260;6.714;2022-07-06T03:36:06;2.03;;;1.00;;
38312;SDS011;24114;52.260;6.714;2022-07-06T03:38:35;2.08;;;0.70;;
38312;SDS011;24114;52.260;6.714;2022-07-06T03:41:03;2.67;;;0.90;;
38312;SDS011;24114;52.260;6.714;2022-07-06T03:43:31;3.53;;;0.93;;
38312;SDS011;24114;52.260;6.714;2022-07-06T03:45:59;2.78;;;0.70;;
38312;SDS011;24114;52.260;6.714;2022-07-06T03:48:26;2.38;;;0.80;;
38312;SDS011;24114;52.260;6.714;2022-07-06T03:50:54;1.57;;;0.50;;
38312;SDS011;24114;52.260;6.714;2022-07-06T03:53:22;4.15;;;0.77;;
38312;SDS011;24114;52.260;6.714;2022-07-06T03:55:51;3.03;;;0.50;;
38312;SDS011;24114;52.260;6.714;2022-07-06T03:58:33;2.83;;;0.80;;
38312;SDS011;24114;52.260;6.714;2022-07-06T04:01:00;2.05;;;0.50;;
38312;SDS011;24114;52.260;6.714;2022-07-06T04:03:28;3.17;;;0.93;;
38312;SDS011;24114;52.260;6.714;2022-07-06T04:05:59;3.15;;;0.88;;
38312;SDS011;24114;52.260;6.714;2022-07-06T04:08:27;3.20;;;0.80;;
38312;SDS011;24114;52.260;6.714;2022-07-06T04:10:56;2.50;;;0.70;;
38312;SDS011;24114;52.260;6.714;2022-07-06T04:13:23;3.65;;;0.90;;
38312;SDS011;24114;52.260;6.714;2022-07-06T04:15:52;3.42;;;1.20;;
38312;SDS011;24114;52.260;6.714;2022-07-06T04:18:20;2.60;;;0.70;;
38312;SDS011;24114;52.260;6.714;2022-07-06T04:20:48;1.52;;;0.50;;
38312;SDS011;24114;52.260;6.714;2022-07-06T04:23:16;3.17;;;0.70;;
38312;SDS011;24114;52.260;6.714;2022-07-06T04:25:44;2.55;;;0.55;;
38312;SDS011;24114;52.260;6.714;2022-07-06T04:28:13;3.92;;;0.73;;
38312;SDS011;24114;52.260;6.714;2022-07-06T04:30:40;1.63;;;0.60;;
38312;SDS011;24114;52.260;6.714;2022-07-06T04:33:08;2.37;;;0.60;;
38312;SDS011;24114;52.260;6.714;2022-07-06T04:35:36;2.15;;;0.70;;
38312;SDS011;24114;52.260;6.714;2022-07-06T04:38:03;2.20;;;0.53;;
38312;SDS011;24114;52.260;6.714;2022-07-06T04:40:32;3.97;;;1.00;;
38312;SDS011;24114;52.260;6.714;2022-07-06T04:42:59;3.45;;;1.08;;
38312;SDS011;24114;52.260;6.714;2022-07-06T04:45:29;2.92;;;0.77;;
38312;SDS011;24114;52.260;6.714;2022-07-06T04:47:56;3.60;;;0.80;;
38312;SDS011;24114;52.260;6.714;2022-07-06T04:50:24;2.47;;;0.75;;
38312;SDS011;24114;52.260;6.714;2022-07-06T04:52:52;1.63;;;0.60;;
38312;SDS011;24114;52.260;6.714;2022-07-06T04:55:19;2.50;;;0.73;;
38312;SDS011;24114;52.260;6.714;2022-07-06T04:57:47;2.70;;;0.70;;
38312;SDS011;24114;52.260;6.714;2022-07-06T05:00:15;3.22;;;0.85;;
38312;SDS011;24114;52.260;6.714;2022-07-06T05:02:44;3.15;;;0.65;;
38312;SDS011;24114;52.260;6.714;2022-07-06T05:05:12;3.83;;;0.63;;
38312;SDS011;24114;52.260;6.714;2022-07-06T05:07:40;2.17;;;0.63;;
38312;SDS011;24114;52.260;6.714;2022-07-06T05:10:08;2.22;;;0.60;;
38312;SDS011;24114;52.260;6.714;2022-07-06T05:12:36;2.75;;;0.50;;
38312;SDS011;24114;52.260;6.714;2022-07-06T05:15:04;3.33;;;0.90;;
38312;SDS011;24114;52.260;6.714;2022-07-06T05:17:33;2.70;;;0.75;;
38312;SDS011;24114;52.260;6.714;2022-07-06T05:20:02;3.95;;;0.70;;
38312;SDS011;24114;52.260;6.714;2022-07-06T05:22:30;2.42;;;0.70;;
38312;SDS011;24114;52.260;6.714;2022-07-06T05:24:58;3.75;;;0.82;;
38312;SDS011;24114;52.260;6.714;2022-07-06T05:27:26;2.72;;;0.88;;
38312;SDS011;24114;52.260;6.714;2022-07-06T05:29:53;2.70;;;0.90;;
38312;SDS011;24114;52.260;6.714;2022-07-06T05:32:21;3.15;;;1.00;;
38312;SDS011;24114;52.260;6.714;2022-07-06T05:34:49;4.13;;;0.68;;
38312;SDS011;24114;52.260;6.714;2022-07-06T05:37:18;3.05;;;0.70;;
38312;SDS011;24114;52.260;6.714;2022-07-06T05:39:46;3.83;;;0.75;;
38312;SDS011;24114;52.260;6.714;2022-07-06T05:42:15;2.95;;;1.08;;
38312;SDS011;24114;52.260;6.714;2022-07-06T05:44:44;2.67;;;0.67;;
38312;SDS011;24114;52.260;6.714;2022-07-06T05:47:11;3.53;;;0.70;;
38312;SDS011;24114;52.260;6.714;2022-07-06T05:49:57;3.28;;;0.60;;
38312;SDS011;24114;52.260;6.714;2022-07-06T05:52:42;3.05;;;0.63;;
38312;SDS011;24114;52.260;6.714;2022-07-06T05:55:12;2.90;;;0.70;;
38312;SDS011;24114;52.260;6.714;2022-07-06T05:57:39;3.00;;;0.60;;
38312;SDS011;24114;52.260;6.714;2022-07-06T06:00:07;4.85;;;0.70;;
38312;SDS011;24114;52.260;6.714;2022-07-06T06:02:36;3.00;;;0.65;;
38312;SDS011;24114;52.260;6.714;2022-07-06T06:05:05;2.90;;;0.53;;
38312;SDS011;24114;52.260;6.714;2022-07-06T06:07:34;2.90;;;0.60;;
38312;SDS011;24114;52.260;6.714;2022-07-06T06:10:04;4.22;;;0.82;;
38312;SDS011;24114;52.260;6.714;2022-07-06T06:12:33;5.07;;;0.85;;
38312;SDS011;24114;52.260;6.714;2022-07-06T08:10:37;1.53;;;0.10;;
38312;SDS011;24114;52.260;6.714;2022-07-06T08:13:24;1.23;;;0.20;;
38312;SDS011;24114;52.260;6.714;2022-07-06T08:15:52;1.60;;;0.00;;
38312;SDS011;24114;52.260;6.714;2022-07-06T08:18:20;3.28;;;0.25;;
38312;SDS011;24114;52.260;6.714;2022-07-06T08:20:48;1.27;;;0.00;;
38312;SDS011;24114;52.260;6.714;2022-07-06T08:23:36;2.35;;;0.10;;
38312;SDS011;24114;52.260;6.714;2022-07-06T08:26:05;4.82;;;0.40;;
38312;SDS011;24114;52.260;6.714;2022-07-06T08:28:32;2.42;;;0.20;;
38312;SDS011;24114;52.260;6.714;2022-07-06T08:31:00;1.13;;;0.10;;
38312;SDS011;24114;52.260;6.714;2022-07-06T08:33:28;2.10;;;0.10;;
38312;SDS011;24114;52.260;6.714;2022-07-06T08:35:55;2.28;;;0.10;;
38312;SDS011;24114;52.260;6.714;2022-07-06T08:38:23;2.60;;;0.10;;
38312;SDS011;24114;52.260;6.714;2022-07-06T08:43:03;3.30;;;0.20;;
38312;SDS011;24114;52.260;6.714;2022-07-06T08:45:31;2.45;;;0.10;;
38312;SDS011;24114;52.260;6.714;2022-07-06T08:48:02;2.13;;;0.15;;
38312;SDS011;24114;52.260;6.714;2022-07-06T08:50:32;2.67;;;0.20;;
38312;SDS011;24114;52.260;6.714;2022-07-06T08:53:00;1.65;;;0.20;;
38312;SDS011;24114;52.260;6.714;2022-07-06T08:55:28;1.00;;;0.20;;
38312;SDS011;24114;52.260;6.714;2022-07-06T08:57:56;1.70;;;0.10;;
38312;SDS011;24114;52.260;6.714;2022-07-06T09:02:33;1.57;;;0.20;;
38312;SDS011;24114;52.260;6.714;2022-07-06T09:05:02;1.27;;;0.08;;
38312;SDS011;24114;52.260;6.714;2022-07-06T09:07:31;1.43;;;0.10;;
38312;SDS011;24114;52.260;6.714;2022-07-06T09:12:19;1.40;;;0.20;;
38312;SDS011;24114;52.260;6.714;2022-07-06T09:14:46;3.63;;;0.30;;
38312;SDS011;24114;52.260;6.714;2022-07-06T09:17:14;3.57;;;0.30;;
38312;SDS011;24114;52.260;6.714;2022-07-06T09:19:42;1.00;;;0.10;;
38312;SDS011;24114;52.260;6.714;2022-07-06T09:22:24;1.98;;;0.10;;
38312;SDS011;24114;52.260;6.714;2022-07-06T09:24:52;1.90;;;0.17;;
38312;SDS011;24114;52.260;6.714;2022-07-06T09:27:21;1.75;;;0.30;;
38312;SDS011;24114;52.260;6.714;2022-07-06T09:29:49;2.42;;;0.28;;
38312;SDS011;24114;52.260;6.714;2022-07-06T09:32:19;1.10;;;0.20;;
38312;SDS011;24114;52.260;6.714;2022-07-06T09:34:47;3.03;;;0.40;;
38312;SDS011;24114;52.260;6.714;2022-07-06T09:37:15;2.08;;;0.30;;
38312;SDS011;24114;52.260;6.714;2022-07-06T09:39:49;2.58;;;0.30;;
38312;SDS011;24114;52.260;6.714;2022-07-06T09:42:17;1.58;;;0.10;;
38312;SDS011;24114;52.260;6.714;2022-07-06T09:44:53;1.67;;;0.05;;
38312;SDS011;24114;52.260;6.714;2022-07-06T09:47:20;1.70;;;0.03;;
38312;SDS011;24114;52.260;6.714;2022-07-06T09:49:48;1.15;;;0.10;;
38312;SDS011;24114;52.260;6.714;2022-07-06T09:52:16;2.35;;;0.10;;
38312;SDS011;24114;52.260;6.714;2022-07-06T09:54:43;3.08;;;0.20;;
38312;SDS011;24114;52.260;6.714;2022-07-06T09:57:16;2.28;;;0.10;;
38312;SDS011;24114;52.260;6.714;2022-07-06T09:59:49;2.25;;;0.28;;
38312;SDS011;24114;52.260;6.714;2022-07-06T10:02:17;2.75;;;0.20;;
38312;SDS011;24114;52.260;6.714;2022-07-06T10:04:48;1.92;;;0.20;;
38312;SDS011;24114;52.260;6.714;2022-07-06T10:07:16;2.35;;;0.20;;
38312;SDS011;24114;52.260;6.714;2022-07-06T10:09:44;1.52;;;0.10;;
38312;SDS011;24114;52.260;6.714;2022-07-06T10:12:14;2.60;;;0.10;;
38312;SDS011;24114;52.260;6.714;2022-07-06T10:14:45;1.40;;;0.10;;
38312;SDS011;24114;52.260;6.714;2022-07-06T10:17:17;1.40;;;0.00;;
38312;SDS011;24114;52.260;6.714;2022-07-06T10:19:45;2.05;;;0.00;;
38312;SDS011;24114;52.260;6.714;2022-07-06T10:22:14;1.35;;;0.00;;
38312;SDS011;24114;52.260;6.714;2022-07-06T10:24:44;0.77;;;0.00;;
38312;SDS011;24114;52.260;6.714;2022-07-06T10:27:12;2.17;;;0.00;;
38312;SDS011;24114;52.260;6.714;2022-07-06T10:29:40;1.50;;;0.10;;
38312;SDS011;24114;52.260;6.714;2022-07-06T10:32:09;1.25;;;0.10;;
38312;SDS011;24114;52.260;6.714;2022-07-06T10:34:37;2.15;;;0.20;;
38312;SDS011;24114;52.260;6.714;2022-07-06T10:37:05;0.80;;;0.10;;
38312;SDS011;24114;52.260;6.714;2022-07-06T10:39:33;0.52;;;0.00;;
38312;SDS011;24114;52.260;6.714;2022-07-06T10:45:06;1.90;;;0.20;;
38312;SDS011;24114;52.260;6.714;2022-07-06T10:47:36;0.77;;;0.10;;
38312;SDS011;24114;52.260;6.714;2022-07-06T10:50:04;1.15;;;0.10;;
38312;SDS011;24114;52.260;6.714;2022-07-06T10:52:47;1.87;;;0.07;;
38312;SDS011;24114;52.260;6.714;2022-07-06T10:55:29;1.30;;;0.10;;
38312;SDS011;24114;52.260;6.714;2022-07-06T10:57:58;0.90;;;0.00;;
38312;SDS011;24114;52.260;6.714;2022-07-06T11:00:26;1.20;;;0.00;;
38312;SDS011;24114;52.260;6.714;2022-07-06T11:02:55;1.70;;;0.20;;
38312;SDS011;24114;52.260;6.714;2022-07-06T11:05:41;1.38;;;0.10;;
38312;SDS011;24114;52.260;6.714;2022-07-06T11:08:42;1.55;;;0.08;;
38312;SDS011;24114;52.260;6.714;2022-07-06T11:11:11;0.50;;;0.00;;
38312;SDS011;24114;52.260;6.714;2022-07-06T11:13:42;0.43;;;0.00;;
38312;SDS011;24114;52.260;6.714;2022-07-06T11:16:11;1.70;;;0.10;;
38312;SDS011;24114;52.260;6.714;2022-07-06T11:18:40;1.48;;;0.00;;
38312;SDS011;24114;52.260;6.714;2022-07-06T11:21:14;2.00;;;0.10;;
38312;SDS011;24114;52.260;6.714;2022-07-06T11:23:47;2.60;;;0.20;;
38312;SDS011;24114;52.260;6.714;2022-07-06T11:26:15;0.83;;;0.10;;
38312;SDS011;24114;52.260;6.714;2022-07-06T11:28:44;1.00;;;0.00;;
38312;SDS011;24114;52.260;6.714;2022-07-06T11:31:13;0.17;;;0.00;;
38312;SDS011;24114;52.260;6.714;2022-07-06T11:33:45;1.40;;;0.00;;
38312;SDS011;24114;52.260;6.714;2022-07-06T11:36:14;1.35;;;0.10;;
38312;SDS011;24114;52.260;6.714;2022-07-06T11:38:44;1.20;;;0.00;;
38312;SDS011;24114;52.260;6.714;2022-07-06T11:41:12;0.60;;;0.00;;
38312;SDS011;24114;52.260;6.714;2022-07-06T11:43:41;0.63;;;0.00;;
38312;SDS011;24114;52.260;6.714;2022-07-06T11:46:19;1.63;;;0.08;;
38312;SDS011;24114;52.260;6.714;2022-07-06T11:48:50;1.20;;;0.00;;
38312;SDS011;24114;52.260;6.714;2022-07-06T11:51:18;1.35;;;0.10;;
38312;SDS011;24114;52.260;6.714;2022-07-06T11:53:47;0.95;;;0.00;;
38312;SDS011;24114;52.260;6.714;2022-07-06T11:56:21;1.50;;;0.10;;
38312;SDS011;24114;52.260;6.714;2022-07-06T11:58:52;0.80;;;0.00;;
38312;SDS011;24114;52.260;6.714;2022-07-06T12:01:21;1.45;;;0.10;;
38312;SDS011;24114;52.260;6.714;2022-07-06T12:03:51;1.67;;;0.00;;
38312;SDS011;24114;52.260;6.714;2022-07-06T12:06:20;0.65;;;0.10;;
38312;SDS011;24114;52.260;6.714;2022-07-06T12:08:50;1.58;;;0.03;;
38312;SDS011;24114;52.260;6.714;2022-07-06T12:11:19;1.25;;;0.00;;
38312;SDS011;24114;52.260;6.714;2022-07-06T12:13:47;1.75;;;0.00;;
38312;SDS011;24114;52.260;6.714;2022-07-06T12:16:16;0.80;;;0.00;;
38312;SDS011;24114;52.260;6.714;2022-07-06T12:18:44;0.65;;;0.10;;
38312;SDS011;24114;52.260;6.714;2022-07-06T12:21:15;1.75;;;0.00;;
38312;SDS011;24114;52.260;6.714;2022-07-06T12:23:45;1.37;;;0.10;;
38312;SDS011;24114;52.260;6.714;2022-07-06T12:26:14;1.63;;;0.10;;
38312;SDS011;24114;52.260;6.714;2022-07-06T12:28:43;1.98;;;0.00;;
38312;SDS011;24114;52.260;6.714;2022-07-06T12:31:11;1.65;;;0.00;;
38312;SDS011;24114;52.260;6.714;2022-07-06T12:33:58;1.30;;;0.00;;
38312;SDS011;24114;52.260;6.714;2022-07-06T12:36:27;2.17;;;0.00;;
38312;SDS011;24114;52.260;6.714;2022-07-06T12:38:55;0.57;;;0.00;;
38312;SDS011;24114;52.260;6.714;2022-07-06T12:41:26;0.80;;;0.00;;
38312;SDS011;24114;52.260;6.714;2022-07-06T12:44:02;2.83;;;0.00;;
38312;SDS011;24114;52.260;6.714;2022-07-06T12:46:32;0.93;;;0.10;;
38312;SDS011;24114;52.260;6.714;2022-07-06T12:49:02;0.97;;;0.00;;
38312;SDS011;24114;52.260;6.714;2022-07-06T12:54:16;1.90;;;0.00;;
38312;SDS011;24114;52.260;6.714;2022-07-06T12:57:00;0.87;;;0.00;;
38312;SDS011;24114;52.260;6.714;2022-07-06T12:59:37;1.70;;;0.20;;
38312;SDS011;24114;52.260;6.714;2022-07-06T13:02:06;1.92;;;0.00;;
38312;SDS011;24114;52.260;6.714;2022-07-06T13:04:36;1.30;;;0.10;;
38312;SDS011;24114;52.260;6.714;2022-07-06T13:07:05;0.70;;;0.00;;
38312;SDS011;24114;52.260;6.714;2022-07-06T13:09:34;0.87;;;0.00;;
38312;SDS011;24114;52.260;6.714;2022-07-06T13:12:02;0.90;;;0.00;;
38312;SDS011;24114;52.260;6.714;2022-07-06T13:14:30;1.38;;;0.00;;
38312;SDS011;24114;52.260;6.714;2022-07-06T13:16:58;1.50;;;0.08;;
38312;SDS011;24114;52.260;6.714;2022-07-06T13:19:27;1.90;;;0.20;;
38312;SDS011;24114;52.260;6.714;2022-07-06T13:21:54;2.40;;;0.00;;
38312;SDS011;24114;52.260;6.714;2022-07-06T13:24:23;1.38;;;0.00;;
38312;SDS011;24114;52.260;6.714;2022-07-06T13:26:54;0.93;;;0.10;;
38312;SDS011;24114;52.260;6.714;2022-07-06T13:29:22;1.00;;;0.00;;
38312;SDS011;24114;52.260;6.714;2022-07-06T13:31:51;1.20;;;0.00;;
38312;SDS011;24114;52.260;6.714;2022-07-06T13:34:18;1.58;;;0.00;;
38312;SDS011;24114;52.260;6.714;2022-07-06T13:36:46;0.60;;;0.00;;
38312;SDS011;24114;52.260;6.714;2022-07-06T13:39:14;1.45;;;0.10;;
38312;SDS011;24114;52.260;6.714;2022-07-06T13:41:43;3.30;;;0.10;;
38312;SDS011;24114;52.260;6.714;2022-07-06T13:44:11;1.95;;;0.00;;
38312;SDS011;24114;52.260;6.714;2022-07-06T13:46:40;1.63;;;0.10;;
38312;SDS011;24114;52.260;6.714;2022-07-06T13:49:08;2.70;;;0.10;;
38312;SDS011;24114;52.260;6.714;2022-07-06T13:51:36;1.80;;;0.00;;
38312;SDS011;24114;52.260;6.714;2022-07-06T13:54:04;0.93;;;0.08;;
38312;SDS011;24114;52.260;6.714;2022-07-06T13:56:32;1.60;;;0.10;;
38312;SDS011;24114;52.260;6.714;2022-07-06T13:59:01;1.95;;;0.10;;
38312;SDS011;24114;52.260;6.714;2022-07-06T14:01:29;1.88;;;0.10;;
38312;SDS011;24114;52.260;6.714;2022-07-06T14:03:57;1.08;;;0.17;;
38312;SDS011;24114;52.260;6.714;2022-07-06T14:06:25;1.23;;;0.00;;
38312;SDS011;24114;52.260;6.714;2022-07-06T14:08:52;1.60;;;0.05;;
38312;SDS011;24114;52.260;6.714;2022-07-06T14:11:20;1.13;;;0.00;;
38312;SDS011;24114;52.260;6.714;2022-07-06T14:13:48;1.27;;;0.05;;
38312;SDS011;24114;52.260;6.714;2022-07-06T14:16:17;1.80;;;0.10;;
38312;SDS011;24114;52.260;6.714;2022-07-06T14:18:45;1.50;;;0.10;;
38312;SDS011;24114;52.260;6.714;2022-07-06T14:21:12;2.28;;;0.00;;
38312;SDS011;24114;52.260;6.714;2022-07-06T14:23:40;1.33;;;0.05;;
38312;SDS011;24114;52.260;6.714;2022-07-06T14:26:08;1.90;;;0.10;;
38312;SDS011;24114;52.260;6.714;2022-07-06T14:28:35;1.45;;;0.08;;
38312;SDS011;24114;52.260;6.714;2022-07-06T14:31:03;1.08;;;0.10;;
38312;SDS011;24114;52.260;6.714;2022-07-06T14:33:33;1.35;;;0.20;;
38312;SDS011;24114;52.260;6.714;2022-07-06T14:36:01;0.57;;;0.00;;
38312;SDS011;24114;52.260;6.714;2022-07-06T14:38:28;3.25;;;0.00;;
38312;SDS011;24114;52.260;6.714;2022-07-06T14:40:56;3.40;;;0.10;;
38312;SDS011;24114;52.260;6.714;2022-07-06T14:43:24;2.22;;;0.10;;
38312;SDS011;24114;52.260;6.714;2022-07-06T14:45:52;0.80;;;0.10;;
38312;SDS011;24114;52.260;6.714;2022-07-06T14:48:20;0.70;;;0.10;;
38312;SDS011;24114;52.260;6.714;2022-07-06T14:50:49;1.05;;;0.25;;
38312;SDS011;24114;52.260;6.714;2022-07-06T14:53:18;1.60;;;0.00;;
38312;SDS011;24114;52.260;6.714;2022-07-06T14:55:46;1.70;;;0.08;;
38312;SDS011;24114;52.260;6.714;2022-07-06T14:58:13;0.85;;;0.20;;
38312;SDS011;24114;52.260;6.714;2022-07-06T15:00:44;1.10;;;0.10;;
38312;SDS011;24114;52.260;6.714;2022-07-06T15:03:12;1.48;;;0.10;;
38312;SDS011;24114;52.260;6.714;2022-07-06T15:05:39;0.95;;;0.17;;
38312;SDS011;24114;52.260;6.714;2022-07-06T15:08:11;0.50;;;0.00;;
38312;SDS011;24114;52.260;6.714;2022-07-06T15:10:40;1.80;;;0.10;;
38312;SDS011;24114;52.260;6.714;2022-07-06T15:13:08;1.85;;;0.17;;
38312;SDS011;24114;52.260;6.714;2022-07-06T15:15:36;1.70;;;0.10;;
38312;SDS011;24114;52.260;6.714;2022-07-06T15:18:24;4.60;;;0.10;;
38312;SDS011;24114;52.260;6.714;2022-07-06T15:20:52;0.93;;;0.10;;
38312;SDS011;24114;52.260;6.714;2022-07-06T15:23:21;1.65;;;0.10;;
38312;SDS011;24114;52.260;6.714;2022-07-06T15:25:50;1.47;;;0.10;;
38312;SDS011;24114;52.260;6.714;2022-07-06T15:28:21;2.55;;;0.10;;
38312;SDS011;24114;52.260;6.714;2022-07-06T15:30:50;1.60;;;0.23;;
38312;SDS011;24114;52.260;6.714;2022-07-06T15:33:18;1.60;;;0.00;;
38312;SDS011;24114;52.260;6.714;2022-07-06T15:35:46;0.80;;;0.05;;
38312;SDS011;24114;52.260;6.714;2022-07-06T15:38:14;1.13;;;0.05;;
38312;SDS011;24114;52.260;6.714;2022-07-06T15:40:43;3.80;;;0.10;;
38312;SDS011;24114;52.260;6.714;2022-07-06T15:43:14;1.75;;;0.13;;
38312;SDS011;24114;52.260;6.714;2022-07-06T15:45:41;2.22;;;0.30;;
38312;SDS011;24114;52.260;6.714;2022-07-06T15:48:10;2.83;;;0.22;;
38312;SDS011;24114;52.260;6.714;2022-07-06T15:50:37;1.92;;;0.10;;
38312;SDS011;24114;52.260;6.714;2022-07-06T15:53:05;1.20;;;0.10;;
38312;SDS011;24114;52.260;6.714;2022-07-06T15:55:33;2.75;;;0.10;;
38312;SDS011;24114;52.260;6.714;2022-07-06T15:58:02;1.65;;;0.10;;
38312;SDS011;24114;52.260;6.714;2022-07-06T16:00:29;2.03;;;0.10;;
38312;SDS011;24114;52.260;6.714;2022-07-06T16:02:57;2.75;;;0.10;;
38312;SDS011;24114;52.260;6.714;2022-07-06T16:05:25;1.40;;;0.17;;
38312;SDS011;24114;52.260;6.714;2022-07-06T16:08:13;2.20;;;0.10;;
38312;SDS011;24114;52.260;6.714;2022-07-06T16:11:00;1.50;;;0.10;;
38312;SDS011;24114;52.260;6.714;2022-07-06T16:13:29;1.50;;;0.15;;
38312;SDS011;24114;52.260;6.714;2022-07-06T16:15:57;2.38;;;0.20;;
38312;SDS011;24114;52.260;6.714;2022-07-06T16:18:25;1.42;;;0.10;;
38312;SDS011;24114;52.260;6.714;2022-07-06T16:20:53;1.75;;;0.08;;
38312;SDS011;24114;52.260;6.714;2022-07-06T16:23:20;1.55;;;0.10;;
38312;SDS011;24114;52.260;6.714;2022-07-06T16:25:48;1.80;;;0.20;;
38312;SDS011;24114;52.260;6.714;2022-07-06T16:28:16;4.17;;;0.17;;
38312;SDS011;24114;52.260;6.714;2022-07-06T16:30:45;1.05;;;0.10;;
38312;SDS011;24114;52.260;6.714;2022-07-06T16:33:13;1.23;;;0.05;;
38312;SDS011;24114;52.260;6.714;2022-07-06T16:35:42;2.17;;;0.20;;
38312;SDS011;24114;52.260;6.714;2022-07-06T16:38:15;2.15;;;0.20;;
38312;SDS011;24114;52.260;6.714;2022-07-06T16:40:43;1.80;;;0.10;;
38312;SDS011;24114;52.260;6.714;2022-07-06T16:43:11;1.00;;;0.10;;
38312;SDS011;24114;52.260;6.714;2022-07-06T16:45:40;1.92;;;0.10;;
38312;SDS011;24114;52.260;6.714;2022-07-06T16:48:10;1.60;;;0.10;;
38312;SDS011;24114;52.260;6.714;2022-07-06T16:50:37;1.40;;;0.10;;
38312;SDS011;24114;52.260;6.714;2022-07-06T16:53:05;1.45;;;0.10;;
38312;SDS011;24114;52.260;6.714;2022-07-06T16:55:33;1.27;;;0.20;;
38312;SDS011;24114;52.260;6.714;2022-07-06T16:58:01;2.10;;;0.20;;
38312;SDS011;24114;52.260;6.714;2022-07-06T17:00:28;2.80;;;0.10;;
38312;SDS011;24114;52.260;6.714;2022-07-06T17:02:59;1.88;;;0.20;;
38312;SDS011;24114;52.260;6.714;2022-07-06T17:05:29;3.00;;;0.10;;
38312;SDS011;24114;52.260;6.714;2022-07-06T17:07:57;1.85;;;0.20;;